sensor_id;sensor_type;location;lat;lon;timestamp;pressure;altitude;pressure_sealevel;temperature;humidity
59240;BME280;45010;53.640;10.578;2022-10-22T00:01:38;100300.41;;;25.41;42.68
59240;BME280;45010;53.640;10.578;2022-10-22T00:04:38;100304.94;;;25.40;42.44
59240;BME280;45010;53.640;10.578;2022-10-22T00:07:39;100282.19;;;25.32;42.49
59240;BME280;45010;53.640;10.578;2022-10-22T00:10:40;100297.75;;;25.41;42.53
59240;BME280;45010;53.640;10.578;2022-10-22T00:13:40;100300.97;;;25.43;42.27
59240;BME280;45010;53.640;10.578;2022-10-22T00:16:41;100298.06;;;25.44;42.35
59240;BME280;45010;53.640;10.578;2022-10-22T00:19:41;100294.84;;;25.42;42.31
59240;BME280;45010;53.640;10.578;2022-10-22T00:22:41;100287.06;;;25.41;42.31
59240;BME280;45010;53.640;10.578;2022-10-22T00:25:42;100290.22;;;25.37;42.75
59240;BME280;45010;53.640;10.578;2022-10-22T00:28:42;100295.53;;;25.32;42.55
59240;BME280;45010;53.640;10.578;2022-10-22T00:31:42;100295.53;;;25.32;42.40
59240;BME280;45010;53.640;10.578;2022-10-22T00:34:48;100306.69;;;25.29;42.46
59240;BME280;45010;53.640;10.578;2022-10-22T00:37:49;100309.84;;;25.26;42.39
59240;BME280;45010;53.640;10.578;2022-10-22T00:40:49;100314.59;;;25.24;42.46
59240;BME280;45010;53.640;10.578;2022-10-22T00:43:55;100307.03;;;25.16;42.68
59240;BME280;45010;53.640;10.578;2022-10-22T00:46:56;100322.53;;;25.19;42.85
59240;BME280;45010;53.640;10.578;2022-10-22T00:49:57;100314.97;;;25.10;42.71
59240;BME280;45010;53.640;10.578;2022-10-22T00:52:59;100244.88;;;24.64;42.57
59240;BME280;45010;53.640;10.578;2022-10-22T00:56:01;100319.78;;;25.14;42.79
59240;BME280;45010;53.640;10.578;2022-10-22T00:59:02;100310.59;;;25.04;42.74
59240;BME280;45010;53.640;10.578;2022-10-22T01:02:03;100327.75;;;25.08;42.68
59240;BME280;45010;53.640;10.578;2022-10-22T01:05:04;100303.34;;;25.00;42.63
59240;BME280;45010;53.640;10.578;2022-10-22T01:08:05;100316.72;;;25.05;42.79
59240;BME280;45010;53.640;10.578;2022-10-22T01:11:19;100309.00;;;25.03;42.81
59240;BME280;45010;53.640;10.578;2022-10-22T01:14:53;100308.41;;;25.01;42.83
59240;BME280;45010;53.640;10.578;2022-10-22T01:18:03;100301.69;;;24.98;42.70
59240;BME280;45010;53.640;10.578;2022-10-22T01:21:28;100291.22;;;24.92;42.93
59240;BME280;45010;53.640;10.578;2022-10-22T01:24:38;100307.53;;;24.95;42.79
59240;BME280;45010;53.640;10.578;2022-10-22T01:31:37;100319.50;;;24.93;42.76
59240;BME280;45010;53.640;10.578;2022-10-22T01:34:41;100316.97;;;24.86;43.04
59240;BME280;45010;53.640;10.578;2022-10-22T01:37:47;100329.03;;;24.89;42.97
59240;BME280;45010;53.640;10.578;2022-10-22T01:40:49;100333.81;;;24.87;43.05
59240;BME280;45010;53.640;10.578;2022-10-22T01:43:50;100333.25;;;24.84;43.10
59240;BME280;45010;53.640;10.578;2022-10-22T01:46:54;100328.03;;;24.78;42.86
59240;BME280;45010;53.640;10.578;2022-10-22T01:50:07;100318.66;;;24.75;43.14
59240;BME280;45010;53.640;10.578;2022-10-22T01:56:51;100334.44;;;24.77;43.13
59240;BME280;45010;53.640;10.578;2022-10-22T02:00:06;100336.69;;;24.68;43.30
59240;BME280;45010;53.640;10.578;2022-10-22T02:03:13;100346.38;;;24.74;43.05
59240;BME280;45010;53.640;10.578;2022-10-22T02:06:18;100345.81;;;24.72;43.16
59240;BME280;45010;53.640;10.578;2022-10-22T02:09:21;100346.06;;;24.70;43.16
59240;BME280;45010;53.640;10.578;2022-10-22T02:12:24;100346.28;;;24.69;43.25
59240;BME280;45010;53.640;10.578;2022-10-22T02:15:28;100334.97;;;24.62;43.16
59240;BME280;45010;53.640;10.578;2022-10-22T02:18:34;100326.44;;;24.60;43.06
59240;BME280;45010;53.640;10.578;2022-10-22T02:21:37;100331.81;;;24.65;43.27
59240;BME280;45010;53.640;10.578;2022-10-22T02:24:37;100323.25;;;24.63;43.19
59240;BME280;45010;53.640;10.578;2022-10-22T02:27:48;100322.69;;;24.61;43.36
59240;BME280;45010;53.640;10.578;2022-10-22T02:30:52;100319.44;;;24.58;43.27
59240;BME280;45010;53.640;10.578;2022-10-22T02:33:56;100308.97;;;24.52;43.21
59240;BME280;45010;53.640;10.578;2022-10-22T02:36:58;100319.94;;;24.55;43.36
59240;BME280;45010;53.640;10.578;2022-10-22T02:40:00;100328.19;;;24.54;43.38
59240;BME280;45010;53.640;10.578;2022-10-22T02:43:03;100327.28;;;24.48;43.38
59240;BME280;45010;53.640;10.578;2022-10-22T02:46:04;100332.69;;;24.53;43.41
59240;BME280;45010;53.640;10.578;2022-10-22T02:49:04;100324.94;;;24.52;43.45
59240;BME280;45010;53.640;10.578;2022-10-22T02:52:05;100330.53;;;24.50;43.47
59240;BME280;45010;53.640;10.578;2022-10-22T02:55:06;100314.94;;;24.42;43.54
59240;BME280;45010;53.640;10.578;2022-10-22T02:58:06;100325.09;;;24.45;43.46
59240;BME280;45010;53.640;10.578;2022-10-22T03:01:07;100310.63;;;24.41;43.42
59240;BME280;45010;53.640;10.578;2022-10-22T03:04:07;100325.09;;;24.45;43.56
59240;BME280;45010;53.640;10.578;2022-10-22T03:07:07;100326.16;;;24.44;43.55
59240;BME280;45010;53.640;10.578;2022-10-22T03:10:08;100319.66;;;24.40;43.62
59240;BME280;45010;53.640;10.578;2022-10-22T03:13:08;100328.25;;;24.42;43.57
59240;BME280;45010;53.640;10.578;2022-10-22T03:16:09;100323.94;;;24.41;43.66
59240;BME280;45010;53.640;10.578;2022-10-22T03:19:09;100318.06;;;24.39;43.66
59240;BME280;45010;53.640;10.578;2022-10-22T03:22:15;100318.47;;;24.30;43.86
59240;BME280;45010;53.640;10.578;2022-10-22T03:25:19;100329.78;;;24.38;43.63
59240;BME280;45010;53.640;10.578;2022-10-22T03:28:21;100328.16;;;24.37;43.71
59240;BME280;45010;53.640;10.578;2022-10-22T03:31:21;100337.22;;;24.36;43.72
59240;BME280;45010;53.640;10.578;2022-10-22T03:34:22;100351.56;;;24.35;43.30
59240;BME280;45010;53.640;10.578;2022-10-22T03:37:23;100353.66;;;24.33;43.83
59240;BME280;45010;53.640;10.578;2022-10-22T03:40:24;100346.72;;;24.31;43.74
59240;BME280;45010;53.640;10.578;2022-10-22T03:43:24;100346.72;;;24.31;43.83
59240;BME280;45010;53.640;10.578;2022-10-22T03:46:24;100348.81;;;24.29;43.67
59240;BME280;45010;53.640;10.578;2022-10-22T03:49:25;100348.81;;;24.29;43.58
59240;BME280;45010;53.640;10.578;2022-10-22T03:52:25;100357.06;;;24.28;43.81
59240;BME280;45010;53.640;10.578;2022-10-22T03:55:25;100349.28;;;24.26;43.67
59240;BME280;45010;53.640;10.578;2022-10-22T03:58:26;100323.84;;;24.07;43.86
59240;BME280;45010;53.640;10.578;2022-10-22T04:01:27;100341.69;;;24.18;43.80
59240;BME280;45010;53.640;10.578;2022-10-22T04:04:28;100341.69;;;24.18;43.56
59240;BME280;45010;53.640;10.578;2022-10-22T04:07:29;100360.41;;;24.23;43.67
59240;BME280;45010;53.640;10.578;2022-10-22T04:10:29;100361.72;;;24.21;43.70
59240;BME280;45010;53.640;10.578;2022-10-22T04:13:30;100360.91;;;24.20;43.94
59240;BME280;45010;53.640;10.578;2022-10-22T04:16:30;100364.63;;;24.19;43.77
59240;BME280;45010;53.640;10.578;2022-10-22T04:19:31;100361.34;;;24.17;43.99
59240;BME280;45010;53.640;10.578;2022-10-22T04:22:33;100345.16;;;24.07;43.81
59240;BME280;45010;53.640;10.578;2022-10-22T04:25:34;100355.22;;;24.16;43.97
59240;BME280;45010;53.640;10.578;2022-10-22T04:28:34;100357.06;;;24.16;43.97
59240;BME280;45010;53.640;10.578;2022-10-22T04:31:35;100358.13;;;24.15;43.87
59240;BME280;45010;53.640;10.578;2022-10-22T04:34:35;100326.53;;;23.95;43.93
59240;BME280;45010;53.640;10.578;2022-10-22T04:37:35;100367.16;;;24.14;43.40
59240;BME280;45010;53.640;10.578;2022-10-22T04:40:36;100369.00;;;24.13;43.89
59240;BME280;45010;53.640;10.578;2022-10-22T04:43:36;100359.53;;;24.05;43.97
59240;BME280;45010;53.640;10.578;2022-10-22T04:46:36;100378.28;;;24.11;43.98
59240;BME280;45010;53.640;10.578;2022-10-22T04:49:37;100371.34;;;24.10;43.98
59240;BME280;45010;53.640;10.578;2022-10-22T04:52:37;100385.72;;;24.09;44.13
59240;BME280;45010;53.640;10.578;2022-10-22T04:55:37;100382.47;;;24.07;44.16
59240;BME280;45010;53.640;10.578;2022-10-22T04:58:38;100373.53;;;24.01;44.25
59240;BME280;45010;53.640;10.578;2022-10-22T05:01:41;100375.41;;;24.00;44.04
59240;BME280;45010;53.640;10.578;2022-10-22T05:04:43;100379.78;;;24.07;43.92
59240;BME280;45010;53.640;10.578;2022-10-22T05:07:44;100371.13;;;23.99;44.25
59240;BME280;45010;53.640;10.578;2022-10-22T05:10:44;100390.69;;;24.05;44.23
59240;BME280;45010;53.640;10.578;2022-10-22T05:13:44;100385.00;;;24.01;43.92
59240;BME280;45010;53.640;10.578;2022-10-22T05:16:45;100393.56;;;24.03;44.04
59240;BME280;45010;53.640;10.578;2022-10-22T05:19:46;100397.28;;;24.02;44.35
59240;BME280;45010;53.640;10.578;2022-10-22T05:22:47;100403.66;;;24.01;44.24
59240;BME280;45010;53.640;10.578;2022-10-22T05:25:47;100404.72;;;24.00;44.01
59240;BME280;45010;53.640;10.578;2022-10-22T05:28:48;100396.59;;;23.95;43.90
59240;BME280;45010;53.640;10.578;2022-10-22T05:31:49;100399.38;;;24.00;44.28
59240;BME280;45010;53.640;10.578;2022-10-22T05:34:49;100403.88;;;24.00;44.21
59240;BME280;45010;53.640;10.578;2022-10-22T05:37:50;100405.75;;;23.99;44.21
59240;BME280;45010;53.640;10.578;2022-10-22T05:41:06;100408.41;;;23.99;44.15
59240;BME280;45010;53.640;10.578;2022-10-22T05:44:10;100401.44;;;23.98;44.33
59240;BME280;45010;53.640;10.578;2022-10-22T05:47:10;100403.09;;;23.99;44.29
59240;BME280;45010;53.640;10.578;2022-10-22T05:50:11;100406.00;;;23.98;44.36
59240;BME280;45010;53.640;10.578;2022-10-22T05:53:11;100399.84;;;23.97;44.22
59240;BME280;45010;53.640;10.578;2022-10-22T05:56:15;100399.84;;;23.97;44.29
59240;BME280;45010;53.640;10.578;2022-10-22T05:59:15;100405.16;;;23.97;44.09
59240;BME280;45010;53.640;10.578;2022-10-22T06:02:16;100405.16;;;23.97;44.37
59240;BME280;45010;53.640;10.578;2022-10-22T06:05:16;100407.25;;;23.95;44.26
59240;BME280;45010;53.640;10.578;2022-10-22T06:08:16;100394.66;;;23.90;44.12
59240;BME280;45010;53.640;10.578;2022-10-22T06:11:20;100403.44;;;23.91;44.33
59240;BME280;45010;53.640;10.578;2022-10-22T06:14:21;100422.75;;;23.98;44.22
59240;BME280;45010;53.640;10.578;2022-10-22T06:17:21;100428.91;;;23.99;44.19
59240;BME280;45010;53.640;10.578;2022-10-22T06:20:21;100424.63;;;23.98;44.22
59240;BME280;45010;53.640;10.578;2022-10-22T06:23:22;100433.41;;;23.98;44.22
59240;BME280;45010;53.640;10.578;2022-10-22T06:26:22;100437.13;;;23.97;44.05
59240;BME280;45010;53.640;10.578;2022-10-22T06:29:22;100434.47;;;23.97;44.10
59240;BME280;45010;53.640;10.578;2022-10-22T06:32:23;100438.19;;;23.96;44.09
59240;BME280;45010;53.640;10.578;2022-10-22T06:35:23;100439.22;;;23.95;44.07
59240;BME280;45010;53.640;10.578;2022-10-22T06:38:23;100438.28;;;23.89;44.30
59240;BME280;45010;53.640;10.578;2022-10-22T06:41:24;100448.50;;;23.92;44.27
59240;BME280;45010;53.640;10.578;2022-10-22T06:44:24;100449.31;;;23.93;44.26
59240;BME280;45010;53.640;10.578;2022-10-22T06:47:25;100450.34;;;23.92;44.59
59240;BME280;45010;53.640;10.578;2022-10-22T06:50:25;100462.63;;;23.93;44.46
59240;BME280;45010;53.640;10.578;2022-10-22T06:53:25;100465.28;;;23.93;44.27
59240;BME280;45010;53.640;10.578;2022-10-22T06:56:26;100467.69;;;23.95;44.38
59240;BME280;45010;53.640;10.578;2022-10-22T06:59:28;100464.25;;;23.94;44.32
59240;BME280;45010;53.640;10.578;2022-10-22T07:02:28;100464.25;;;23.94;44.60
59240;BME280;45010;53.640;10.578;2022-10-22T07:05:28;100461.00;;;23.92;44.51
59240;BME280;45010;53.640;10.578;2022-10-22T07:08:29;100456.59;;;23.86;44.38
59240;BME280;45010;53.640;10.578;2022-10-22T07:11:41;100461.91;;;23.86;44.53
59240;BME280;45010;53.640;10.578;2022-10-22T07:14:42;100451.06;;;23.75;44.49
59240;BME280;45010;53.640;10.578;2022-10-22T07:17:42;100476.97;;;23.92;44.46
59240;BME280;45010;53.640;10.578;2022-10-22T07:20:42;100475.34;;;23.91;44.50
59240;BME280;45010;53.640;10.578;2022-10-22T07:23:43;100472.13;;;23.89;44.50
59240;BME280;45010;53.640;10.578;2022-10-22T07:26:44;100484.63;;;23.88;44.68
59240;BME280;45010;53.640;10.578;2022-10-22T07:29:44;100493.44;;;23.89;44.48
59240;BME280;45010;53.640;10.578;2022-10-22T07:32:44;100497.13;;;23.88;44.56
59240;BME280;45010;53.640;10.578;2022-10-22T07:35:45;100497.13;;;23.88;44.82
59240;BME280;45010;53.640;10.578;2022-10-22T07:38:47;100501.63;;;23.87;44.89
59240;BME280;45010;53.640;10.578;2022-10-22T07:41:47;100501.63;;;23.87;44.72
59240;BME280;45010;53.640;10.578;2022-10-22T07:44:48;100506.16;;;23.87;44.66
59240;BME280;45010;53.640;10.578;2022-10-22T07:47:48;100483.13;;;23.69;44.57
59240;BME280;45010;53.640;10.578;2022-10-22T07:50:49;100505.13;;;23.88;44.74
59240;BME280;45010;53.640;10.578;2022-10-22T07:53:50;100496.41;;;23.81;45.05
59240;BME280;45010;53.640;10.578;2022-10-22T07:56:50;100521.34;;;23.86;45.30
59240;BME280;45010;53.640;10.578;2022-10-22T07:59:50;100518.44;;;23.88;45.45
59240;BME280;45010;53.640;10.578;2022-10-22T08:02:51;100525.94;;;23.91;45.74
59240;BME280;45010;53.640;10.578;2022-10-22T08:05:51;100530.22;;;23.92;45.70
59240;BME280;45010;53.640;10.578;2022-10-22T08:08:52;100527.34;;;23.94;45.79
59240;BME280;45010;53.640;10.578;2022-10-22T08:11:52;100520.75;;;23.96;45.69
59240;BME280;45010;53.640;10.578;2022-10-22T08:14:53;100528.84;;;24.01;45.75
59240;BME280;45010;53.640;10.578;2022-10-22T08:17:53;100538.25;;;24.04;46.05
59240;BME280;45010;53.640;10.578;2022-10-22T08:20:54;100536.16;;;24.06;45.79
59240;BME280;45010;53.640;10.578;2022-10-22T08:23:54;100537.34;;;24.10;46.02
59240;BME280;45010;53.640;10.578;2022-10-22T08:26:55;100543.84;;;24.14;46.07
59240;BME280;45010;53.640;10.578;2022-10-22T08:29:55;100539.88;;;24.17;46.07
59240;BME280;45010;53.640;10.578;2022-10-22T08:32:55;100545.56;;;24.21;45.89
59240;BME280;45010;53.640;10.578;2022-10-22T08:35:56;100550.19;;;24.25;46.13
59240;BME280;45010;53.640;10.578;2022-10-22T08:38:56;100551.59;;;24.28;45.68
59240;BME280;45010;53.640;10.578;2022-10-22T08:48:51;100562.22;;;24.40;45.95
59240;BME280;45010;53.640;10.578;2022-10-22T08:51:50;100566.03;;;24.44;45.95
59240;BME280;45010;53.640;10.578;2022-10-22T08:54:55;100568.00;;;24.49;45.91
59240;BME280;45010;53.640;10.578;2022-10-22T08:58:07;100554.34;;;24.45;46.06
59240;BME280;45010;53.640;10.578;2022-10-22T09:01:20;100565.22;;;24.55;45.79
59240;BME280;45010;53.640;10.578;2022-10-22T09:04:44;100553.97;;;24.53;45.99
59240;BME280;45010;53.640;10.578;2022-10-22T09:07:49;100562.41;;;24.62;45.68
59240;BME280;45010;53.640;10.578;2022-10-22T09:10:53;100577.72;;;24.67;45.38
59240;BME280;45010;53.640;10.578;2022-10-22T09:13:56;100578.84;;;24.71;45.56
59240;BME280;45010;53.640;10.578;2022-10-22T09:17:25;100587.44;;;24.73;45.25
59240;BME280;45010;53.640;10.578;2022-10-22T09:24:16;100574.22;;;24.78;45.25
59240;BME280;45010;53.640;10.578;2022-10-22T09:27:26;100579.09;;;24.81;45.16
59240;BME280;45010;53.640;10.578;2022-10-22T09:30:30;100586.66;;;24.84;45.17
59240;BME280;45010;53.640;10.578;2022-10-22T09:33:32;100568.28;;;24.76;45.12
59240;BME280;45010;53.640;10.578;2022-10-22T09:36:33;100589.38;;;24.90;45.05
59240;BME280;45010;53.640;10.578;2022-10-22T09:39:38;100582.34;;;24.83;45.17
59240;BME280;45010;53.640;10.578;2022-10-22T09:42:38;100585.09;;;24.89;45.09
59240;BME280;45010;53.640;10.578;2022-10-22T09:45:39;100562.97;;;24.76;45.29
59240;BME280;45010;53.640;10.578;2022-10-22T09:48:41;100583.03;;;24.91;45.35
59240;BME280;45010;53.640;10.578;2022-10-22T09:51:53;100582.53;;;24.94;45.21
59240;BME280;45010;53.640;10.578;2022-10-22T09:54:54;100589.59;;;25.00;45.18
59240;BME280;45010;53.640;10.578;2022-10-22T09:57:58;100583.69;;;24.98;45.27
59240;BME280;45010;53.640;10.578;2022-10-22T10:00:59;100579.41;;;24.97;45.07
59240;BME280;45010;53.640;10.578;2022-10-22T10:04:06;100589.13;;;25.03;45.30
59240;BME280;45010;53.640;10.578;2022-10-22T10:07:21;100592.47;;;25.10;45.30
59240;BME280;45010;53.640;10.578;2022-10-22T10:10:34;100566.88;;;24.97;45.40
59240;BME280;45010;53.640;10.578;2022-10-22T10:26:33;100603.81;;;25.18;45.63
59240;BME280;45010;53.640;10.578;2022-10-22T10:29:48;100600.09;;;25.19;45.49
59240;BME280;45010;53.640;10.578;2022-10-22T10:33:27;100603.81;;;25.18;45.46
59240;BME280;45010;53.640;10.578;2022-10-22T10:36:39;100598.97;;;25.15;45.51
59240;BME280;45010;53.640;10.578;2022-10-22T10:49:25;100594.75;;;25.19;45.57
59240;BME280;45010;53.640;10.578;2022-10-22T10:52:39;100588.34;;;25.20;45.54
59240;BME280;45010;53.640;10.578;2022-10-22T10:55:56;100578.06;;;25.11;45.36
59240;BME280;45010;53.640;10.578;2022-10-22T11:09:27;100598.81;;;25.21;45.45
59240;BME280;45010;53.640;10.578;2022-10-22T11:12:38;100600.78;;;25.26;45.09
59240;BME280;45010;53.640;10.578;2022-10-22T11:15:40;100587.00;;;25.17;44.99
59240;BME280;45010;53.640;10.578;2022-10-22T11:19:02;100583.75;;;25.15;45.14
59240;BME280;45010;53.640;10.578;2022-10-22T11:22:10;100589.19;;;25.20;45.08
59240;BME280;45010;53.640;10.578;2022-10-22T11:25:20;100595.66;;;25.24;44.98
59240;BME280;45010;53.640;10.578;2022-10-22T11:28:31;100594.84;;;25.24;45.10
59240;BME280;45010;53.640;10.578;2022-10-22T11:31:33;100596.94;;;25.22;44.86
59240;BME280;45010;53.640;10.578;2022-10-22T11:34:40;100594.28;;;25.22;45.07
59240;BME280;45010;53.640;10.578;2022-10-22T11:37:44;100557.81;;;24.98;44.98
59240;BME280;45010;53.640;10.578;2022-10-22T11:47:17;100568.22;;;25.12;45.23
59240;BME280;45010;53.640;10.578;2022-10-22T11:50:22;100578.72;;;25.19;45.27
59240;BME280;45010;53.640;10.578;2022-10-22T11:56:25;100580.13;;;25.21;45.46
59240;BME280;45010;53.640;10.578;2022-10-22T11:59:38;100576.06;;;25.19;45.55
59240;BME280;45010;53.640;10.578;2022-10-22T12:02:39;100574.66;;;25.28;45.56
59240;BME280;45010;53.640;10.578;2022-10-22T12:05:40;100583.22;;;25.30;45.54
59240;BME280;45010;53.640;10.578;2022-10-22T12:09:00;100585.41;;;25.33;45.62
59240;BME280;45010;53.640;10.578;2022-10-22T12:12:12;100567.19;;;25.30;45.28
59240;BME280;45010;53.640;10.578;2022-10-22T12:15:22;100572.16;;;25.38;45.30
59240;BME280;45010;53.640;10.578;2022-10-22T12:18:30;100566.72;;;25.33;45.11
59240;BME280;45010;53.640;10.578;2022-10-22T12:21:32;100551.78;;;25.32;45.38
59240;BME280;45010;53.640;10.578;2022-10-22T12:24:36;100564.94;;;25.39;45.22
59240;BME280;45010;53.640;10.578;2022-10-22T12:27:39;100572.81;;;25.46;45.13
59240;BME280;45010;53.640;10.578;2022-10-22T12:30:40;100553.38;;;25.33;44.99
59240;BME280;45010;53.640;10.578;2022-10-22T12:33:40;100572.31;;;25.49;44.89
59240;BME280;45010;53.640;10.578;2022-10-22T12:36:41;100568.44;;;25.39;44.81
59240;BME280;45010;53.640;10.578;2022-10-22T12:39:41;100588.34;;;25.49;44.90
59240;BME280;45010;53.640;10.578;2022-10-22T12:43:12;100574.44;;;25.47;44.99
59240;BME280;45010;53.640;10.578;2022-10-22T12:46:14;100575.25;;;25.47;44.81
59240;BME280;45010;53.640;10.578;2022-10-22T12:49:24;100580.31;;;25.49;44.93
59240;BME280;45010;53.640;10.578;2022-10-22T12:52:30;100586.63;;;25.55;44.71
59240;BME280;45010;53.640;10.578;2022-10-22T12:55:32;100581.28;;;25.55;44.44
59240;BME280;45010;53.640;10.578;2022-10-22T12:58:37;100566.97;;;25.49;44.45
59240;BME280;45010;53.640;10.578;2022-10-22T13:01:40;100567.81;;;25.49;44.74
59240;BME280;45010;53.640;10.578;2022-10-22T13:04:41;100570.25;;;25.51;44.36
59240;BME280;45010;53.640;10.578;2022-10-22T13:07:45;100586.94;;;25.58;44.38
59240;BME280;45010;53.640;10.578;2022-10-22T13:10:50;100587.66;;;25.54;44.78
59240;BME280;45010;53.640;10.578;2022-10-22T13:14:00;100606.19;;;25.60;44.39
59240;BME280;45010;53.640;10.578;2022-10-22T13:20:21;100619.31;;;25.62;44.41
59240;BME280;45010;53.640;10.578;2022-10-22T13:23:24;100596.00;;;25.57;44.75
59240;BME280;45010;53.640;10.578;2022-10-22T13:26:34;100592.75;;;25.55;44.46
59240;BME280;45010;53.640;10.578;2022-10-22T13:29:35;100595.50;;;25.60;44.52
59240;BME280;45010;53.640;10.578;2022-10-22T13:32:37;100598.19;;;25.60;44.68
59240;BME280;45010;53.640;10.578;2022-10-22T13:35:39;100600.38;;;25.63;44.61
59240;BME280;45010;53.640;10.578;2022-10-22T13:38:40;100597.63;;;25.58;44.38
59240;BME280;45010;53.640;10.578;2022-10-22T13:41:40;100600.94;;;25.65;44.52
59240;BME280;45010;53.640;10.578;2022-10-22T13:44:40;100599.88;;;25.67;44.28
59240;BME280;45010;53.640;10.578;2022-10-22T13:47:44;100606.84;;;25.68;44.14
59240;BME280;45010;53.640;10.578;2022-10-22T13:50:48;100597.22;;;25.67;44.23
59240;BME280;45010;53.640;10.578;2022-10-22T13:53:50;100580.44;;;25.54;44.32
59240;BME280;45010;53.640;10.578;2022-10-22T13:56:51;100600.72;;;25.67;44.22
59240;BME280;45010;53.640;10.578;2022-10-22T13:59:52;100601.50;;;25.68;44.29
59240;BME280;45010;53.640;10.578;2022-10-22T14:02:54;100607.91;;;25.67;44.43
59240;BME280;45010;53.640;10.578;2022-10-22T14:05:56;100603.59;;;25.65;44.60
59240;BME280;45010;53.640;10.578;2022-10-22T14:08:59;100591.22;;;25.59;44.13
59240;BME280;45010;53.640;10.578;2022-10-22T14:12:00;100600.72;;;25.67;44.14
59240;BME280;45010;53.640;10.578;2022-10-22T14:15:01;100591.78;;;25.61;44.33
59240;BME280;45010;53.640;10.578;2022-10-22T14:18:03;100603.94;;;25.69;44.05
59240;BME280;45010;53.640;10.578;2022-10-22T14:21:04;100574.31;;;25.54;43.98
59240;BME280;45010;53.640;10.578;2022-10-22T14:24:08;100585.97;;;25.64;43.91
59240;BME280;45010;53.640;10.578;2022-10-22T14:27:11;100592.38;;;25.63;43.95
59240;BME280;45010;53.640;10.578;2022-10-22T14:30:20;100599.41;;;25.70;43.99
59240;BME280;45010;53.640;10.578;2022-10-22T14:33:23;100600.22;;;25.70;44.11
59240;BME280;45010;53.640;10.578;2022-10-22T14:36:24;100602.09;;;25.70;43.93
59240;BME280;45010;53.640;10.578;2022-10-22T14:39:24;100604.75;;;25.70;43.94
59240;BME280;45010;53.640;10.578;2022-10-22T14:42:25;100600.22;;;25.70;44.43
59240;BME280;45010;53.640;10.578;2022-10-22T14:45:25;100600.22;;;25.70;44.04
59240;BME280;45010;53.640;10.578;2022-10-22T14:48:26;100610.09;;;25.70;44.22
59240;BME280;45010;53.640;10.578;2022-10-22T14:51:26;100616.22;;;25.70;44.41
59240;BME280;45010;53.640;10.578;2022-10-22T14:54:26;100608.47;;;25.69;44.33
59240;BME280;45010;53.640;10.578;2022-10-22T14:57:27;100619.97;;;25.69;44.19
59240;BME280;45010;53.640;10.578;2022-10-22T15:00:27;100610.56;;;25.67;44.14
59240;BME280;45010;53.640;10.578;2022-10-22T15:03:27;100626.13;;;25.70;44.00
59240;BME280;45010;53.640;10.578;2022-10-22T15:06:28;100612.78;;;25.70;44.09
59240;BME280;45010;53.640;10.578;2022-10-22T15:09:28;100620.78;;;25.70;44.23
59240;BME280;45010;53.640;10.578;2022-10-22T15:12:29;100621.25;;;25.67;43.86
59240;BME280;45010;53.640;10.578;2022-10-22T15:15:29;100621.25;;;25.67;44.27
59240;BME280;45010;53.640;10.578;2022-10-22T15:18:29;100621.25;;;25.67;44.20
59240;BME280;45010;53.640;10.578;2022-10-22T15:21:30;100623.44;;;25.70;43.94
59240;BME280;45010;53.640;10.578;2022-10-22T15:24:31;100624.00;;;25.72;43.94
59240;BME280;45010;53.640;10.578;2022-10-22T15:27:31;100605.03;;;25.56;43.98
59240;BME280;45010;53.640;10.578;2022-10-22T15:30:32;100622.41;;;25.71;44.16
59240;BME280;45010;53.640;10.578;2022-10-22T15:33:33;100621.75;;;25.63;44.36
59240;BME280;45010;53.640;10.578;2022-10-22T15:36:33;100633.09;;;25.71;44.38
59240;BME280;45010;53.640;10.578;2022-10-22T15:39:33;100627.09;;;25.63;44.26
59240;BME280;45010;53.640;10.578;2022-10-22T15:42:34;100619.06;;;25.63;44.26
59240;BME280;45010;53.640;10.578;2022-10-22T15:45:34;100629.84;;;25.69;44.61
59240;BME280;45010;53.640;10.578;2022-10-22T15:48:35;100631.28;;;25.59;44.06
59240;BME280;45010;53.640;10.578;2022-10-22T15:51:35;100655.50;;;25.70;44.35
59240;BME280;45010;53.640;10.578;2022-10-22T15:54:35;100652.84;;;25.70;44.60
59240;BME280;45010;53.640;10.578;2022-10-22T15:57:37;100639.38;;;25.64;44.59
59240;BME280;45010;53.640;10.578;2022-10-22T16:00:37;100654.44;;;25.71;44.41
59240;BME280;45010;53.640;10.578;2022-10-22T16:03:39;100644.16;;;25.62;44.34
59240;BME280;45010;53.640;10.578;2022-10-22T16:06:43;100667.72;;;25.65;44.42
59240;BME280;45010;53.640;10.578;2022-10-22T16:09:44;100669.81;;;25.63;44.36
59240;BME280;45010;53.640;10.578;2022-10-22T16:12:44;100667.38;;;25.62;44.67
59240;BME280;45010;53.640;10.578;2022-10-22T16:15:44;100674.56;;;25.61;44.80
59240;BME280;45010;53.640;10.578;2022-10-22T16:18:45;100675.84;;;25.59;44.47
59240;BME280;45010;53.640;10.578;2022-10-22T16:21:48;100672.50;;;25.51;44.46
59240;BME280;45010;53.640;10.578;2022-10-22T16:24:49;100681.47;;;25.57;44.61
59240;BME280;45010;53.640;10.578;2022-10-22T16:27:50;100685.16;;;25.56;44.40
59240;BME280;45010;53.640;10.578;2022-10-22T16:30:50;100696.88;;;25.55;44.54
59240;BME280;45010;53.640;10.578;2022-10-22T16:33:51;100690.84;;;25.48;44.80
59240;BME280;45010;53.640;10.578;2022-10-22T16:36:51;100698.75;;;25.55;44.72
59240;BME280;45010;53.640;10.578;2022-10-22T16:39:52;100707.34;;;25.57;45.04
59240;BME280;45010;53.640;10.578;2022-10-22T16:42:53;100702.09;;;25.50;44.80
59240;BME280;45010;53.640;10.578;2022-10-22T16:45:53;100711.41;;;25.59;44.94
59240;BME280;45010;53.640;10.578;2022-10-22T16:48:53;100717.31;;;25.61;44.75